createdAt,value
2022-08-07T00:00:33.694Z,15.80
2022-08-07T00:02:35.181Z,15.82
2022-08-07T00:02:36.648Z,15.84
2022-08-07T00:03:36.861Z,15.86
2022-08-07T00:04:33.909Z,15.91
2022-08-07T00:05:33.701Z,15.90
2022-08-07T00:06:33.957Z,15.90
2022-08-07T00:07:40.133Z,15.88
2022-08-07T00:08:33.673Z,15.92
2022-08-07T00:09:35.366Z,15.97
2022-08-07T00:10:33.670Z,15.95
2022-08-07T00:11:33.670Z,15.98
2022-08-07T00:12:33.666Z,15.98
2022-08-07T00:13:33.662Z,16.01
2022-08-07T00:14:33.662Z,15.95
2022-08-07T00:15:37.680Z,16.01
2022-08-07T00:16:33.658Z,16.13
2022-08-07T00:17:35.778Z,16.01
2022-08-07T00:18:33.655Z,15.98
2022-08-07T00:20:00.259Z,15.98
2022-08-07T00:20:35.476Z,15.97
2022-08-07T00:21:56.679Z,15.95
2022-08-07T00:22:35.296Z,15.95
2022-08-07T00:23:33.642Z,15.94
2022-08-07T00:24:33.641Z,15.98
2022-08-07T00:25:37.187Z,15.94
2022-08-07T00:26:49.199Z,16.01
2022-08-07T00:27:51.625Z,15.95
2022-08-07T00:28:34.419Z,15.95
2022-08-07T00:29:33.634Z,15.95
2022-08-07T00:30:33.629Z,15.94
2022-08-07T00:31:37.855Z,15.95
2022-08-07T00:32:34.837Z,15.95
2022-08-07T00:33:33.626Z,15.95
2022-08-07T00:34:33.622Z,16.00
2022-08-07T00:35:33.617Z,15.98
2022-08-07T00:36:33.617Z,16.00
2022-08-07T00:37:47.772Z,15.90
2022-08-07T00:38:33.615Z,15.94
2022-08-07T00:39:33.758Z,15.97
2022-08-07T00:40:39.320Z,15.94
2022-08-07T00:41:33.606Z,15.94
2022-08-07T00:42:33.604Z,15.92
2022-08-07T00:44:00.598Z,15.98
2022-08-07T00:44:33.797Z,15.98
2022-08-07T00:45:33.601Z,16.00
2022-08-07T00:46:34.202Z,16.01
2022-08-07T00:48:08.984Z,15.92
2022-08-07T00:48:33.591Z,15.95
2022-08-07T00:50:20.235Z,15.97
2022-08-07T00:50:51.010Z,15.92
2022-08-07T00:51:56.965Z,15.90
2022-08-07T00:52:33.583Z,15.90
2022-08-07T00:53:38.888Z,15.88
2022-08-07T00:54:33.579Z,15.95
2022-08-07T00:56:00.749Z,15.95
2022-08-07T00:56:33.904Z,15.97
2022-08-07T00:57:34.051Z,16.01
2022-08-07T00:58:33.575Z,15.97
2022-08-07T00:59:36.020Z,15.95
2022-08-07T01:00:33.577Z,16.01
2022-08-07T01:01:44.022Z,16.01
2022-08-07T01:02:33.562Z,16.04
2022-08-07T01:03:56.940Z,15.95
2022-08-07T01:04:37.439Z,16.05
2022-08-07T01:05:36.525Z,16.12
2022-08-07T01:06:33.557Z,16.08
2022-08-07T01:07:33.555Z,16.16
2022-08-07T01:08:33.553Z,16.05
2022-08-07T01:10:02.365Z,16.13
2022-08-07T01:10:33.545Z,16.10
2022-08-07T01:12:27.708Z,16.16
2022-08-07T01:12:33.543Z,16.12
2022-08-07T01:13:35.289Z,16.10
2022-08-07T01:14:33.538Z,16.15
2022-08-07T01:15:35.678Z,16.15
2022-08-07T01:16:33.534Z,16.13
2022-08-07T01:17:33.531Z,16.23
2022-08-07T01:18:33.532Z,16.15
2022-08-07T01:19:33.533Z,16.15
2022-08-07T01:20:33.531Z,16.13
2022-08-07T01:21:33.525Z,16.12
2022-08-07T01:22:33.521Z,16.13
2022-08-07T01:23:35.413Z,16.17
2022-08-07T01:24:33.519Z,16.13
2022-08-07T01:25:54.398Z,16.09
2022-08-07T01:26:33.515Z,16.12
2022-08-07T01:27:34.069Z,16.12
2022-08-07T01:28:33.515Z,16.12
2022-08-07T01:29:33.817Z,16.15
2022-08-07T01:30:33.506Z,16.17
2022-08-07T01:31:42.308Z,16.17
2022-08-07T01:32:33.503Z,16.04
2022-08-07T01:33:53.557Z,16.21
2022-08-07T01:34:33.500Z,16.13
2022-08-07T01:35:53.629Z,16.09
2022-08-07T01:36:36.430Z,16.17
2022-08-07T01:37:33.839Z,16.10
2022-08-07T01:38:33.491Z,16.10
2022-08-07T01:39:40.643Z,16.10
2022-08-07T01:40:33.490Z,16.20
2022-08-07T01:41:33.486Z,16.16
2022-08-07T01:42:40.234Z,16.12
2022-08-07T01:43:34.784Z,16.17
2022-08-07T01:44:33.481Z,16.10
2022-08-07T01:45:36.906Z,16.20
2022-08-07T01:46:33.477Z,16.23
2022-08-07T01:48:27.338Z,16.20
2022-08-07T01:48:33.914Z,16.16
2022-08-07T01:49:33.469Z,16.16
2022-08-07T01:50:33.465Z,16.15
2022-08-07T01:52:01.256Z,16.12
2022-08-07T01:52:33.462Z,16.05
2022-08-07T01:54:09.643Z,16.16
2022-08-07T01:54:36.952Z,16.12
2022-08-07T01:55:33.665Z,16.08
2022-08-07T01:56:33.468Z,15.97
2022-08-07T01:58:00.961Z,16.09
2022-08-07T01:58:33.630Z,16.04
2022-08-07T01:59:33.450Z,16.10
2022-08-07T02:00:33.445Z,16.12
2022-08-07T02:02:02.105Z,16.09
2022-08-07T02:03:18.061Z,16.12
2022-08-07T02:03:49.002Z,16.12
2022-08-07T02:04:33.483Z,16.16
2022-08-07T02:05:47.669Z,16.05
2022-08-07T02:06:33.442Z,16.04
2022-08-07T02:07:44.779Z,16.16
2022-08-07T02:08:33.430Z,16.08
2022-08-07T02:09:53.149Z,16.16
2022-08-07T02:10:33.426Z,16.15
2022-08-07T02:12:02.806Z,16.10
2022-08-07T02:12:33.424Z,16.15
2022-08-07T02:13:58.591Z,16.05
2022-08-07T02:14:35.859Z,16.15
2022-08-07T02:15:33.983Z,16.12
2022-08-07T02:16:33.922Z,16.13
2022-08-07T02:17:34.386Z,16.15
2022-08-07T02:18:33.411Z,16.08
2022-08-07T02:20:04.452Z,16.09
2022-08-07T02:20:33.405Z,16.15
2022-08-07T02:21:55.245Z,16.10
2022-08-07T02:22:33.400Z,16.09
2022-08-07T02:23:35.773Z,16.08
2022-08-07T02:24:33.403Z,15.95
2022-08-07T02:26:30.925Z,15.98
2022-08-07T02:26:34.735Z,15.91
2022-08-07T02:27:34.217Z,15.90
2022-08-07T02:28:33.390Z,15.80
2022-08-07T02:29:34.303Z,15.86
2022-08-07T02:30:33.386Z,15.82
2022-08-07T02:31:33.384Z,15.77
2022-08-07T02:32:33.382Z,15.75
2022-08-07T02:33:57.379Z,15.65
2022-08-07T02:34:33.375Z,15.64
2022-08-07T02:36:27.091Z,15.62
2022-08-07T02:36:33.735Z,15.58
2022-08-07T02:37:35.985Z,15.52
2022-08-07T02:38:33.370Z,15.49
2022-08-07T02:39:42.964Z,15.49
2022-08-07T02:40:35.354Z,15.40
2022-08-07T02:41:37.430Z,15.40
2022-08-07T02:42:33.363Z,15.39
2022-08-07T02:43:33.360Z,15.25
2022-08-07T02:44:34.875Z,15.33
2022-08-07T02:45:58.981Z,15.24
2022-08-07T02:46:33.353Z,15.21
2022-08-07T02:47:45.029Z,15.25
2022-08-07T02:48:34.355Z,15.21
2022-08-07T02:49:58.492Z,15.25
2022-08-07T02:50:33.341Z,15.28
2022-08-07T02:51:42.389Z,15.29
2022-08-07T02:52:33.340Z,15.22
2022-08-07T02:53:38.300Z,15.33
2022-08-07T02:54:33.336Z,15.25
2022-08-07T02:55:41.977Z,15.33
2022-08-07T02:56:33.330Z,15.37
2022-08-07T02:57:34.973Z,15.37
2022-08-07T02:58:33.879Z,15.35
2022-08-07T02:59:33.328Z,15.43
2022-08-07T03:00:33.325Z,15.43
2022-08-07T03:01:36.281Z,15.42
2022-08-07T03:02:33.320Z,15.46
2022-08-07T03:03:50.171Z,15.40
2022-08-07T03:04:33.323Z,15.37
2022-08-07T03:05:35.927Z,15.39
2022-08-07T03:06:34.650Z,15.31
2022-08-07T03:08:05.367Z,15.39
2022-08-07T03:08:33.305Z,15.37
2022-08-07T03:09:43.235Z,15.40
2022-08-07T03:10:33.301Z,15.31
2022-08-07T03:11:38.511Z,15.35
2022-08-07T03:12:33.296Z,15.33
2022-08-07T03:13:39.239Z,15.35
2022-08-07T03:14:33.289Z,15.33
2022-08-07T03:15:56.716Z,15.29
2022-08-07T03:16:33.290Z,15.35
2022-08-07T03:17:36.285Z,15.33
2022-08-07T03:18:34.953Z,15.24
2022-08-07T03:19:37.048Z,15.29
2022-08-07T03:20:33.275Z,15.28
2022-08-07T03:21:33.469Z,15.29
2022-08-07T03:22:33.276Z,15.28
2022-08-07T03:23:33.937Z,15.31
2022-08-07T03:24:33.267Z,15.19
2022-08-07T03:25:40.354Z,15.21
2022-08-07T03:26:33.270Z,15.22
2022-08-07T03:27:42.143Z,15.19
2022-08-07T03:28:37.353Z,15.04
2022-08-07T03:29:33.832Z,14.99
2022-08-07T03:30:33.253Z,15.02
2022-08-07T03:31:43.361Z,14.96
2022-08-07T03:32:33.252Z,14.88
2022-08-07T03:33:40.165Z,14.85
2022-08-07T03:34:33.281Z,14.72
2022-08-07T03:35:43.989Z,14.59
2022-08-07T03:36:33.279Z,14.50
2022-08-07T03:37:37.331Z,14.30
2022-08-07T03:38:33.510Z,14.20
2022-08-07T03:39:59.245Z,14.12
2022-08-07T03:40:36.648Z,13.93
2022-08-07T03:41:41.979Z,13.87
2022-08-07T03:42:33.229Z,13.97
2022-08-07T03:43:33.226Z,14.00
2022-08-07T03:44:34.387Z,14.00
2022-08-07T03:45:33.222Z,13.97
2022-08-07T03:46:33.221Z,13.95
2022-08-07T03:47:47.628Z,13.86
2022-08-07T03:48:33.215Z,13.78
2022-08-07T03:49:33.211Z,13.65
2022-08-07T03:50:33.215Z,13.67
2022-08-07T03:51:47.832Z,13.47
2022-08-07T03:52:33.207Z,13.41
2022-08-07T03:54:32.704Z,13.28
2022-08-07T03:54:54.087Z,13.27
2022-08-07T03:55:53.002Z,13.11
2022-08-07T03:56:34.226Z,13.04
2022-08-07T03:58:34.193Z,13.09
2022-08-07T03:59:08.476Z,13.08
2022-08-07T03:59:33.186Z,12.93
2022-08-07T04:00:33.553Z,12.97
2022-08-07T04:01:33.252Z,12.87
2022-08-07T04:02:33.185Z,12.75
2022-08-07T04:03:49.855Z,12.80
2022-08-07T04:04:33.172Z,12.61
2022-08-07T04:05:39.379Z,12.60
2022-08-07T04:06:37.951Z,12.54
2022-08-07T04:07:35.826Z,12.46
2022-08-07T04:08:33.164Z,12.42
2022-08-07T04:09:44.822Z,12.32
2022-08-07T04:10:33.161Z,12.24
2022-08-07T04:12:23.873Z,12.24
2022-08-07T04:12:35.292Z,12.15
2022-08-07T04:14:10.429Z,12.00
2022-08-07T04:14:38.969Z,12.03
2022-08-07T04:15:33.146Z,11.91
2022-08-07T04:16:33.142Z,11.99
2022-08-07T04:18:30.920Z,11.97
2022-08-07T04:18:59.555Z,11.91
2022-08-07T04:19:51.101Z,11.86
2022-08-07T04:20:35.183Z,11.91
2022-08-07T04:21:33.561Z,11.88
2022-08-07T04:22:33.127Z,12.02
2022-08-07T04:23:43.857Z,11.97
2022-08-07T04:24:38.708Z,12.00
2022-08-07T04:25:35.837Z,11.91
2022-08-07T04:26:33.115Z,11.86
2022-08-07T04:27:35.468Z,11.97
2022-08-07T04:28:33.110Z,11.94
2022-08-07T04:29:40.524Z,11.90
2022-08-07T04:30:40.207Z,11.94
2022-08-07T04:31:39.100Z,11.97
2022-08-07T04:32:34.474Z,11.97
2022-08-07T04:33:33.633Z,11.90
2022-08-07T04:34:39.436Z,11.87
2022-08-07T04:35:35.089Z,11.97
2022-08-07T04:36:33.085Z,11.80
2022-08-07T04:37:40.403Z,11.84
2022-08-07T04:38:33.080Z,11.94
2022-08-07T04:39:35.673Z,11.81
2022-08-07T04:40:33.075Z,11.75
2022-08-07T04:41:36.795Z,11.77
2022-08-07T04:42:33.070Z,11.81
2022-08-07T04:44:10.488Z,11.78
2022-08-07T04:44:33.062Z,11.80
2022-08-07T04:45:57.676Z,11.81
2022-08-07T04:46:34.737Z,11.81
2022-08-07T04:47:58.842Z,11.78
2022-08-07T04:48:33.049Z,11.78
2022-08-07T04:49:37.563Z,11.83
2022-08-07T04:50:33.043Z,11.80
2022-08-07T04:51:33.039Z,11.81
2022-08-07T04:52:33.040Z,11.83
2022-08-07T04:54:01.174Z,11.78
2022-08-07T04:54:33.470Z,11.78
2022-08-07T04:58:09.383Z,11.83
2022-08-07T04:58:12.790Z,11.83
2022-08-07T04:58:25.681Z,11.78
2022-08-07T04:58:47.520Z,11.78
2022-08-07T05:00:11.988Z,11.78
2022-08-07T05:00:33.247Z,11.87
2022-08-07T05:01:33.108Z,11.83
2022-08-07T05:02:33.007Z,11.90
2022-08-07T05:04:01.005Z,12.04
2022-08-07T05:04:33.230Z,12.10
2022-08-07T05:05:54.020Z,12.15
2022-08-07T05:06:42.951Z,12.25
2022-08-07T05:07:37.065Z,12.22
2022-08-07T05:09:45.323Z,12.35
2022-08-07T05:10:31.703Z,12.42
2022-08-07T05:11:57.618Z,12.35
2022-08-07T05:12:31.698Z,12.45
2022-08-07T05:14:53.822Z,12.47
2022-08-07T05:14:55.702Z,12.54
2022-08-07T05:15:31.685Z,12.60
2022-08-07T05:16:31.690Z,12.64
2022-08-07T05:17:52.019Z,12.64
2022-08-07T05:18:32.156Z,12.75
2022-08-07T05:19:44.189Z,12.80
2022-08-07T05:20:31.687Z,12.80
2022-08-07T05:22:00.146Z,12.78
2022-08-07T05:22:31.664Z,12.79
2022-08-07T05:23:31.663Z,12.75
2022-08-07T05:24:39.537Z,12.80
2022-08-07T05:26:10.350Z,12.79
2022-08-07T05:26:31.653Z,12.79
2022-08-07T05:28:02.893Z,12.90
2022-08-07T05:28:32.104Z,12.97
2022-08-07T05:29:38.823Z,12.97
2022-08-07T05:32:54.257Z,13.19
2022-08-07T05:34:04.508Z,13.31
2022-08-07T05:35:55.146Z,13.44
2022-08-07T05:38:08.285Z,13.57
2022-08-07T05:40:13.723Z,13.65
2022-08-07T05:40:14.159Z,13.62
2022-08-07T05:40:54.260Z,13.89
2022-08-07T05:43:49.817Z,13.81
2022-08-07T05:44:31.875Z,13.99
2022-08-07T05:45:46.873Z,13.93
2022-08-07T05:46:31.870Z,14.00
2022-08-07T05:47:38.588Z,14.08
2022-08-07T05:48:31.870Z,14.14
2022-08-07T05:51:31.457Z,14.20
2022-08-07T05:54:12.900Z,14.30
2022-08-07T05:54:55.544Z,14.40
2022-08-07T05:56:01.957Z,14.43
2022-08-07T05:56:44.620Z,14.51
2022-08-07T05:57:44.961Z,14.53
2022-08-07T05:58:49.346Z,14.53
2022-08-07T05:59:57.165Z,14.51
2022-08-07T06:00:46.347Z,14.58
2022-08-07T06:01:44.646Z,14.63
2022-08-07T06:02:44.645Z,14.70
2022-08-07T06:03:57.015Z,14.68
2022-08-07T06:04:44.602Z,14.59
2022-08-07T06:05:48.849Z,14.58
2022-08-07T06:06:46.285Z,14.55
2022-08-07T06:08:13.406Z,14.59
2022-08-07T06:08:44.907Z,14.72
2022-08-07T06:10:04.068Z,14.78
2022-08-07T06:10:44.587Z,14.77
2022-08-07T06:11:44.582Z,14.77
2022-08-07T06:14:12.751Z,14.84
2022-08-07T06:14:49.515Z,14.92
2022-08-07T06:15:44.653Z,14.84
2022-08-07T06:16:44.569Z,14.89
2022-08-07T06:17:53.383Z,14.94
2022-08-07T06:19:57.721Z,15.06
2022-08-07T06:20:50.024Z,15.06
2022-08-07T06:22:16.402Z,15.04
2022-08-07T06:22:40.199Z,15.00
2022-08-07T06:24:38.005Z,15.14
2022-08-07T06:24:56.941Z,15.14
2022-08-07T06:26:44.830Z,15.15
2022-08-07T06:27:59.926Z,15.17
2022-08-07T06:28:44.774Z,15.15
2022-08-07T06:29:44.833Z,15.27
2022-08-07T06:30:46.078Z,15.22
2022-08-07T06:32:44.772Z,15.31
2022-08-07T06:37:43.685Z,15.42
2022-08-07T06:38:35.720Z,15.52
2022-08-07T06:40:16.831Z,15.44
2022-08-07T06:40:35.878Z,15.54
2022-08-07T06:42:01.636Z,15.52
2022-08-07T06:43:21.372Z,15.59
2022-08-07T06:43:39.476Z,15.61
2022-08-07T06:44:36.904Z,15.67
2022-08-07T06:45:35.863Z,15.64
2022-08-07T06:46:35.704Z,15.62
2022-08-07T06:47:47.867Z,15.75
2022-08-07T06:48:35.704Z,15.88
2022-08-07T06:49:35.703Z,15.84
2022-08-07T06:50:36.086Z,15.94
2022-08-07T06:51:35.701Z,15.88
2022-08-07T06:52:36.593Z,15.95
2022-08-07T06:54:12.056Z,15.95
2022-08-07T06:55:34.102Z,15.94
2022-08-07T06:56:00.472Z,16.04
2022-08-07T06:56:38.320Z,16.04
2022-08-07T06:57:43.445Z,16.17
2022-08-07T07:00:12.929Z,16.13
2022-08-07T07:00:35.691Z,16.17
2022-08-07T07:01:43.744Z,16.23
2022-08-07T07:02:49.097Z,16.17
2022-08-07T07:04:58.316Z,16.31
2022-08-07T07:06:02.787Z,16.47
2022-08-07T07:07:01.155Z,16.41
2022-08-07T07:08:04.073Z,16.46
2022-08-07T07:08:58.310Z,16.36
2022-08-07T07:09:58.511Z,16.51
2022-08-07T07:10:58.846Z,16.54
2022-08-07T07:12:07.404Z,16.58
2022-08-07T07:12:58.309Z,16.61
2022-08-07T07:14:01.800Z,16.54
2022-08-07T07:14:58.311Z,16.65
2022-08-07T07:15:58.307Z,16.66
2022-08-07T07:16:58.308Z,16.68
2022-08-07T07:17:58.307Z,16.76
2022-08-07T07:18:58.306Z,16.72
2022-08-07T07:19:59.156Z,16.76
2022-08-07T07:20:58.309Z,16.86
2022-08-07T07:22:04.812Z,16.87
2022-08-07T07:24:08.056Z,16.86
2022-08-07T07:24:11.127Z,16.93
2022-08-07T07:25:14.198Z,16.93
2022-08-07T07:26:32.897Z,17.05
2022-08-07T07:26:58.306Z,17.06
2022-08-07T07:28:02.323Z,17.12
2022-08-07T07:29:39.463Z,17.08
2022-08-07T07:30:11.971Z,17.14
2022-08-07T07:30:58.331Z,17.16
2022-08-07T07:31:58.301Z,17.14
2022-08-07T07:33:58.298Z,17.29
2022-08-07T07:34:58.303Z,17.27
2022-08-07T07:36:04.866Z,17.29
2022-08-07T07:36:58.302Z,17.36
2022-08-07T07:38:02.885Z,17.41
2022-08-07T07:38:58.371Z,17.39
2022-08-07T07:39:58.371Z,17.57
2022-08-07T07:41:02.218Z,17.48
2022-08-07T07:42:09.059Z,17.59
2022-08-07T07:42:58.291Z,17.63
2022-08-07T07:44:16.832Z,17.67
2022-08-07T07:44:58.290Z,17.72
2022-08-07T07:46:39.754Z,17.76
2022-08-07T07:47:11.860Z,17.85
2022-08-07T07:47:58.283Z,17.82
2022-08-07T07:49:08.805Z,17.85
2022-08-07T07:50:32.959Z,17.89
2022-08-07T07:50:58.286Z,17.83
2022-08-07T07:51:59.784Z,17.85
2022-08-07T07:52:58.283Z,17.87
2022-08-07T07:53:58.277Z,17.95
2022-08-07T07:54:58.276Z,17.95
2022-08-07T07:56:00.974Z,17.92
2022-08-07T07:56:58.273Z,17.95
2022-08-07T07:58:58.274Z,18.03
2022-08-07T07:59:58.271Z,18.10
2022-08-07T08:05:00.889Z,18.41
2022-08-07T08:07:35.794Z,18.49
2022-08-07T08:10:35.697Z,18.65
2022-08-07T08:11:59.719Z,18.70
2022-08-07T08:12:36.807Z,18.77
2022-08-07T08:13:18.527Z,18.75
2022-08-07T08:14:22.851Z,18.74
2022-08-07T08:16:18.524Z,18.84
2022-08-07T08:17:57.607Z,18.96
2022-08-07T08:18:19.058Z,18.92
2022-08-07T08:18:36.358Z,18.89
2022-08-07T08:20:15.841Z,18.99
2022-08-07T08:20:23.058Z,19.00
2022-08-07T08:21:18.524Z,19.14
2022-08-07T08:22:18.526Z,19.12
2022-08-07T08:23:18.526Z,19.19
2022-08-07T08:24:44.987Z,19.34
2022-08-07T08:25:27.022Z,19.37
2022-08-07T08:26:18.530Z,19.39
2022-08-07T08:27:18.534Z,19.36
2022-08-07T08:28:23.974Z,19.51
2022-08-07T08:29:18.543Z,19.64
2022-08-07T08:30:19.714Z,19.77
2022-08-07T08:31:22.744Z,19.85
2022-08-07T08:32:25.027Z,19.94
2022-08-07T08:33:18.545Z,19.94
2022-08-07T08:34:26.647Z,20.07
2022-08-07T08:35:18.550Z,20.13
2022-08-07T08:36:18.561Z,20.24
2022-08-07T08:38:01.208Z,20.32
2022-08-07T08:38:19.756Z,20.40
2022-08-07T08:39:18.600Z,20.41
2022-08-07T08:40:23.532Z,20.50
2022-08-07T08:41:18.573Z,20.44
2022-08-07T08:42:18.576Z,20.58
2022-08-07T08:43:18.582Z,20.67
2022-08-07T08:44:18.584Z,20.74
2022-08-07T08:45:18.590Z,20.96
2022-08-07T08:46:20.367Z,20.99
2022-08-07T08:47:18.599Z,21.22
2022-08-07T08:48:18.625Z,21.27
2022-08-07T08:49:18.628Z,21.33
2022-08-07T08:50:35.323Z,21.32
2022-08-07T08:51:49.160Z,21.35
2022-08-07T08:52:18.992Z,21.42
2022-08-07T08:53:18.635Z,21.50
2022-08-07T08:54:18.643Z,21.70
2022-08-07T08:55:21.133Z,21.69
2022-08-07T08:56:18.651Z,21.70
2022-08-07T08:57:18.657Z,21.77
2022-08-07T08:58:20.371Z,21.99
2022-08-07T08:59:18.669Z,22.07
2022-08-07T09:00:18.677Z,22.17
2022-08-07T09:01:19.517Z,22.28
2022-08-07T09:02:18.755Z,22.41
2022-08-07T09:03:18.693Z,22.55
2022-08-07T09:04:18.696Z,22.62
2022-08-07T09:05:20.002Z,22.73
2022-08-07T09:06:18.705Z,22.85
2022-08-07T09:07:22.976Z,22.96
2022-08-07T09:08:28.160Z,22.94
2022-08-07T09:09:23.749Z,23.02
2022-08-07T09:10:18.925Z,23.12
2022-08-07T09:11:24.967Z,22.96
2022-08-07T09:12:30.425Z,22.87
2022-08-07T09:13:18.737Z,22.65
2022-08-07T09:14:18.744Z,22.45
2022-08-07T09:16:20.309Z,22.20
2022-08-07T09:16:23.468Z,22.07
2022-08-07T09:17:18.751Z,22.04
2022-08-07T09:18:22.499Z,21.92
2022-08-07T09:19:51.919Z,21.73
2022-08-07T09:20:34.643Z,21.51
2022-08-07T09:21:58.006Z,21.32
2022-08-07T09:24:28.341Z,21.14
2022-08-07T09:24:31.969Z,20.93
2022-08-07T09:24:33.628Z,20.82
2022-08-07T09:25:18.778Z,20.87
2022-08-07T09:26:20.906Z,20.69
2022-08-07T09:27:18.785Z,20.74
2022-08-07T09:30:02.368Z,20.67
2022-08-07T09:30:04.694Z,20.75
2022-08-07T09:30:25.396Z,20.66
2022-08-07T09:31:18.839Z,20.65
2022-08-07T09:32:18.983Z,20.56
2022-08-07T09:33:40.857Z,20.58
2022-08-07T09:34:18.809Z,20.60
2022-08-07T09:36:04.464Z,20.59
2022-08-07T09:36:18.815Z,20.55
2022-08-07T09:37:18.816Z,20.48
2022-08-07T09:38:18.821Z,20.39
2022-08-07T09:39:54.448Z,20.39
2022-08-07T09:40:18.878Z,20.37
2022-08-07T09:41:18.823Z,20.36
2022-08-07T09:42:23.024Z,20.36
2022-08-07T09:43:18.827Z,20.37
2022-08-07T09:44:30.045Z,20.47
2022-08-07T09:47:24.371Z,20.37
2022-08-07T09:47:50.581Z,20.37
2022-08-07T09:47:52.710Z,20.34
2022-08-07T09:48:20.371Z,20.41
2022-08-07T09:50:00.494Z,20.34
2022-08-07T09:50:19.978Z,20.40
2022-08-07T09:52:16.254Z,20.28
2022-08-07T09:52:34.506Z,20.29
2022-08-07T09:53:18.847Z,20.24
2022-08-07T09:54:18.853Z,20.14
2022-08-07T09:55:29.440Z,20.25
2022-08-07T09:56:19.655Z,20.18
2022-08-07T09:57:18.854Z,20.36
2022-08-07T09:58:18.868Z,20.31
2022-08-07T09:59:21.677Z,20.37
2022-08-07T10:00:19.035Z,20.40
2022-08-07T10:01:52.374Z,20.37
2022-08-07T10:02:19.114Z,20.37
2022-08-07T10:04:03.271Z,20.36
2022-08-07T10:04:28.201Z,20.36
2022-08-07T10:05:18.871Z,20.29
2022-08-07T10:06:18.914Z,20.32
2022-08-07T10:07:25.775Z,20.34
2022-08-07T10:08:18.889Z,20.28
2022-08-07T10:09:23.573Z,20.25
2022-08-07T10:10:21.346Z,20.36
2022-08-07T10:12:00.225Z,20.34
2022-08-07T10:12:21.824Z,20.43
2022-08-07T10:13:55.019Z,20.56
2022-08-07T10:14:23.057Z,20.65
2022-08-07T10:15:19.016Z,20.67
2022-08-07T10:16:19.116Z,20.75
2022-08-07T10:17:18.894Z,20.75
2022-08-07T10:18:18.898Z,20.75
2022-08-07T10:19:18.898Z,20.88
2022-08-07T10:20:21.888Z,20.85
2022-08-07T10:21:50.449Z,20.87
2022-08-07T10:22:18.908Z,20.90
2022-08-07T10:23:18.906Z,20.99
2022-08-07T10:24:18.911Z,21.02
2022-08-07T10:25:21.001Z,21.11
2022-08-07T10:26:24.605Z,21.11
2022-08-07T10:27:18.910Z,21.17
2022-08-07T10:28:18.912Z,21.25
2022-08-07T10:29:18.910Z,21.18
2022-08-07T10:30:18.932Z,21.30
2022-08-07T10:31:18.920Z,21.21
2022-08-07T10:32:37.074Z,21.18
2022-08-07T10:33:18.936Z,21.21
2022-08-07T10:34:27.023Z,21.21
2022-08-07T10:35:20.532Z,21.22
2022-08-07T10:36:18.924Z,21.20
2022-08-07T10:37:18.929Z,21.21
2022-08-07T10:38:35.716Z,21.24
2022-08-07T10:39:19.001Z,21.22
2022-08-07T10:40:20.932Z,21.21
2022-08-07T10:41:47.306Z,21.18
2022-08-07T10:42:21.283Z,21.22
2022-08-07T10:43:19.522Z,21.21
2022-08-07T10:44:19.545Z,21.21
2022-08-07T10:45:19.368Z,21.22
2022-08-07T10:46:18.940Z,21.29
2022-08-07T10:47:18.939Z,21.30
2022-08-07T10:48:18.943Z,21.36
2022-08-07T10:49:45.369Z,21.36
2022-08-07T10:50:19.078Z,21.36
2022-08-07T10:51:57.221Z,21.36
2022-08-07T10:52:18.944Z,21.40
2022-08-07T10:53:21.253Z,21.39
2022-08-07T10:54:18.950Z,21.45
2022-08-07T10:55:27.021Z,21.42
2022-08-07T10:56:19.719Z,21.52
2022-08-07T10:57:18.953Z,21.52
2022-08-07T10:58:32.090Z,21.58
2022-08-07T10:59:21.156Z,21.55
2022-08-07T11:00:36.714Z,21.48
2022-08-07T11:01:19.007Z,21.51
2022-08-07T11:02:32.805Z,21.52
2022-08-07T11:03:18.965Z,21.46
2022-08-07T11:04:32.166Z,21.43
2022-08-07T11:05:18.968Z,21.39
2022-08-07T11:06:18.965Z,21.46
2022-08-07T11:07:24.891Z,21.39
2022-08-07T11:08:18.973Z,21.45
2022-08-07T11:10:08.672Z,21.43
2022-08-07T11:10:19.126Z,21.43
2022-08-07T11:11:20.378Z,21.50
2022-08-07T11:12:31.516Z,21.39
2022-08-07T11:14:43.988Z,21.22
2022-08-07T11:14:57.067Z,21.22
2022-08-07T11:15:18.985Z,21.25
2022-08-07T11:16:19.534Z,21.30
2022-08-07T11:17:23.521Z,21.24
2022-08-07T11:18:18.990Z,21.22
2022-08-07T11:19:21.517Z,21.43
2022-08-07T11:20:18.989Z,21.42
2022-08-07T11:21:18.997Z,21.61
2022-08-07T11:22:32.457Z,21.60
2022-08-07T11:23:20.784Z,21.69
2022-08-07T11:24:18.997Z,21.82
2022-08-07T11:25:19.801Z,21.83
2022-08-07T11:26:18.997Z,21.89
2022-08-07T11:27:20.666Z,22.00
2022-08-07T11:28:18.999Z,22.08
2022-08-07T11:29:43.556Z,21.89
2022-08-07T11:30:19.405Z,21.89
2022-08-07T11:31:19.001Z,21.77
2022-08-07T11:32:25.732Z,21.73
2022-08-07T11:33:19.008Z,21.67
2022-08-07T11:34:19.009Z,21.66
2022-08-07T11:35:26.738Z,21.69
2022-08-07T11:36:25.109Z,21.70
2022-08-07T11:37:19.014Z,21.80
2022-08-07T11:38:21.399Z,21.83
2022-08-07T11:39:19.383Z,21.96
2022-08-07T11:40:19.941Z,21.93
2022-08-07T11:41:28.346Z,21.95
2022-08-07T11:42:19.244Z,21.91
2022-08-07T11:43:19.021Z,22.02
2022-08-07T11:44:19.073Z,21.98
2022-08-07T11:45:20.294Z,22.02
2022-08-07T11:46:19.026Z,22.14
2022-08-07T11:47:19.026Z,22.13
2022-08-07T11:48:29.643Z,22.04
2022-08-07T11:49:50.038Z,22.06
2022-08-07T11:50:31.431Z,21.99
2022-08-07T11:51:22.885Z,22.00
2022-08-07T11:52:19.035Z,21.83
2022-08-07T11:53:19.037Z,21.79
2022-08-07T11:54:22.190Z,21.80
2022-08-07T11:56:12.055Z,21.82
2022-08-07T11:56:27.158Z,21.91
2022-08-07T11:57:19.042Z,21.96
2022-08-07T11:58:19.046Z,21.92
2022-08-07T12:00:08.960Z,21.98
2022-08-07T12:00:24.538Z,22.04
2022-08-07T12:01:20.143Z,22.04
2022-08-07T12:02:20.858Z,22.07
2022-08-07T12:03:41.538Z,22.10
2022-08-07T12:04:19.053Z,22.06
2022-08-07T12:05:28.869Z,22.02
2022-08-07T12:06:37.229Z,22.11
2022-08-07T12:07:26.948Z,22.14
2022-08-07T12:08:25.984Z,22.18
2022-08-07T12:09:23.350Z,22.11
2022-08-07T12:10:19.065Z,21.99
2022-08-07T12:11:21.019Z,22.15
2022-08-07T12:12:19.068Z,21.99
2022-08-07T12:13:35.344Z,22.04
2022-08-07T12:14:19.329Z,21.95
2022-08-07T12:15:35.765Z,21.93
2022-08-07T12:16:30.127Z,22.00
2022-08-07T12:17:19.704Z,22.04
2022-08-07T12:18:22.233Z,22.15
2022-08-07T12:19:21.158Z,22.04
2022-08-07T12:20:30.038Z,22.18
2022-08-07T12:21:21.052Z,22.17
2022-08-07T12:22:37.701Z,22.23
2022-08-07T12:23:21.652Z,22.13
2022-08-07T12:24:38.030Z,22.20
2022-08-07T12:26:02.932Z,22.28
2022-08-07T12:26:22.685Z,22.20
2022-08-07T12:27:28.142Z,22.14
2022-08-07T12:28:31.088Z,22.17
2022-08-07T12:29:20.296Z,22.14
2022-08-07T12:30:19.101Z,22.22
2022-08-07T12:31:22.480Z,22.29
2022-08-07T12:32:19.104Z,22.30
2022-08-07T12:33:28.191Z,22.32
2022-08-07T12:34:19.397Z,22.28
2022-08-07T12:35:19.317Z,22.20
2022-08-07T12:36:19.110Z,22.14
2022-08-07T12:37:23.412Z,22.20
2022-08-07T12:38:38.614Z,22.22
2022-08-07T12:39:44.247Z,22.29
2022-08-07T12:40:46.322Z,22.28
2022-08-07T12:41:19.158Z,22.29
2022-08-07T12:42:27.202Z,22.35
2022-08-07T12:44:01.361Z,22.36
2022-08-07T12:44:19.123Z,22.36
2022-08-07T12:45:19.132Z,22.36
2022-08-07T12:46:26.047Z,22.47
2022-08-07T12:47:21.496Z,22.59
2022-08-07T12:48:28.011Z,22.73
2022-08-07T12:49:25.435Z,22.69
2022-08-07T12:50:33.994Z,22.73
2022-08-07T12:51:19.141Z,22.72
2022-08-07T12:52:19.511Z,22.68
2022-08-07T12:53:19.288Z,22.72
2022-08-07T12:54:37.379Z,22.70
2022-08-07T12:55:19.146Z,22.69
2022-08-07T12:56:19.150Z,22.72
2022-08-07T12:59:02.924Z,22.60
2022-08-07T13:00:02.919Z,22.65
2022-08-07T13:01:03.015Z,22.69
2022-08-07T13:02:02.924Z,22.73
2022-08-07T13:03:06.739Z,22.72
2022-08-07T13:04:05.156Z,22.76
2022-08-07T13:05:02.939Z,22.72
2022-08-07T13:06:16.940Z,22.69
2022-08-07T13:07:02.943Z,22.73
2022-08-07T13:08:12.136Z,22.76
2022-08-07T13:09:12.462Z,22.76
2022-08-07T13:10:37.992Z,22.68
2022-08-07T13:11:02.944Z,22.70
2022-08-07T13:12:10.283Z,22.66
2022-08-07T13:13:02.954Z,22.55
2022-08-07T13:14:02.947Z,22.48
2022-08-07T13:15:02.950Z,22.66
2022-08-07T13:16:02.950Z,22.75
2022-08-07T13:17:02.954Z,22.84
2022-08-07T13:18:02.954Z,22.81
2022-08-07T13:19:02.958Z,22.85
2022-08-07T13:20:03.074Z,22.91
2022-08-07T13:21:02.960Z,22.90
2022-08-07T13:22:12.378Z,23.00
2022-08-07T13:23:09.728Z,23.00
2022-08-07T13:24:04.828Z,22.98